»·PEaware :: N768L LFPO-EIDW

N768L :: LFPO-EIDW

FLIGHT INFORMATION

Flight Status: Arrived
Operator: Privately registered:
United States
More flights under this callsign
Pilot: Bill H. (23183)
Aircraft: ECLIPSE 500
(EA50)
More flights by this aircraft type
Origin: LFPO Orly
France
Destination: EIDW Dublin Intl
Ireland
More flights between these airports :: More routes between these airports
Route: LFPO EGCC EIDW
File this flight plan on PilotEdge
Remarks: +CW / Charter Flight - Eclipse 550 NG
Altitude:
(Current/Filed)
16,500ft
Speed:
(Current/Filed)
300kts
Departed: 07-Dec-19 06:45 AM
Arrived: 07-Dec-19 08:41 AM
Distance/Time
Traveled:
430nm/1:55
Distance/Time
To Go:
Arrived

Flight Plot

Page will automatically refresh every two minutes.

Flight plan parsing failed; only flown route is shown


Map Options




Map Legend


Flown Route
Filed Route
Departure Airport
Arrival Airport
Navaid (VOR, NDB)
Fix

Horizontal Profiles

Position Reports

Time Latitude Longitude Heading Altitude Ground
Speed
07-Dec-19 06:38 48.725057 2.372882 163 282ft 0kts
07-Dec-19 06:39 48.725059 2.372994 26 282ft 3kts
07-Dec-19 06:40 48.726235 2.376335 95 282ft 6kts
07-Dec-19 06:41 48.723642 2.375669 197 282ft 16kts
07-Dec-19 06:42 48.719803 2.374463 146 282ft 14kts
07-Dec-19 06:43 48.718251 2.376756 75 282ft 11kts
07-Dec-19 06:44 48.738950 2.386399 12 1037ft 134kts
07-Dec-19 06:45 48.773883 2.356156 316 3612ft 178kts
07-Dec-19 06:46 48.813105 2.307369 323 6473ft 189kts
07-Dec-19 06:47 48.857291 2.262366 327 9085ft 197kts
07-Dec-19 06:49 48.904717 2.217730 328 11450ft 205kts
07-Dec-19 06:50 48.954066 2.172563 329 13566ft 212kts
07-Dec-19 06:51 49.005400 2.125947 329 15477ft 219kts
07-Dec-19 06:52 49.060308 2.076122 329 16502ft 256kts
07-Dec-19 06:53 49.127728 2.014828 329 16502ft 300kts
07-Dec-19 06:54 49.201884 1.947182 329 16500ft 316kts
07-Dec-19 06:55 49.279234 1.876390 329 16500ft 333kts
07-Dec-19 06:56 49.359662 1.802507 329 16602ft 339kts
07-Dec-19 06:57 49.440701 1.727772 329 16713ft 341kts
07-Dec-19 06:58 49.522031 1.652479 329 16794ft 342kts
07-Dec-19 06:59 49.603386 1.576867 329 16855ft 342kts
07-Dec-19 07:00 49.685170 1.500555 329 16946ft 344kts
07-Dec-19 07:01 49.766788 1.424096 329 17016ft 344kts
07-Dec-19 07:02 49.847955 1.347748 328 17071ft 345kts
07-Dec-19 07:03 49.930088 1.270193 328 17114ft 345kts
07-Dec-19 07:04 50.011987 1.192542 328 17148ft 346kts
07-Dec-19 07:05 50.088101 1.120097 328 17173ft 346kts
07-Dec-19 07:06 50.169910 1.041932 328 16590ft 338kts
07-Dec-19 07:07 50.248654 0.966389 328 16499ft 329kts
07-Dec-19 07:08 50.326628 0.891288 328 16499ft 329kts
07-Dec-19 07:09 50.404743 0.815757 328 16499ft 329kts
07-Dec-19 07:09 50.469554 0.752864 328 16499ft 329kts
07-Dec-19 07:11 50.560309 0.664448 328 16499ft 329kts
07-Dec-19 07:11 50.625059 0.601119 328 16499ft 329kts
07-Dec-19 07:12 50.703160 0.524454 328 16499ft 329kts
07-Dec-19 07:14 50.793791 0.435107 328 16499ft 329kts
07-Dec-19 07:14 50.858650 0.370910 328 16499ft 329kts
07-Dec-19 07:15 50.936403 0.293677 327 16499ft 329kts
07-Dec-19 07:16 51.014041 0.216245 327 16499ft 329kts
07-Dec-19 07:17 51.091456 0.138725 327 16499ft 329kts
07-Dec-19 07:18 51.168048 0.061720 327 16499ft 329kts
07-Dec-19 07:19 51.245091 -0.016047 327 16499ft 329kts
07-Dec-19 07:20 51.322378 -0.094374 327 16499ft 329kts
07-Dec-19 07:21 51.399777 -0.173134 327 16499ft 329kts
07-Dec-19 07:22 51.476910 -0.251943 327 16499ft 329kts
07-Dec-19 07:23 51.553541 -0.330558 327 16499ft 329kts
07-Dec-19 07:24 51.630749 -0.410087 327 16499ft 329kts
07-Dec-19 07:25 51.707943 -0.489914 327 16500ft 329kts
07-Dec-19 07:26 51.783999 -0.568868 327 16500ft 329kts
07-Dec-19 07:27 51.860931 -0.649091 327 16500ft 329kts
07-Dec-19 07:28 51.937249 -0.728998 326 16500ft 329kts
07-Dec-19 07:29 52.012757 -0.811524 322 16500ft 329kts
07-Dec-19 07:30 52.080693 -0.911440 317 16500ft 329kts
07-Dec-19 07:31 52.148231 -1.012154 317 16500ft 329kts
07-Dec-19 07:32 52.215767 -1.113175 317 16500ft 329kts
07-Dec-19 07:33 52.283284 -1.214456 317 16500ft 329kts
07-Dec-19 07:34 52.350634 -1.315835 317 16500ft 329kts
07-Dec-19 07:35 52.416640 -1.415493 317 16500ft 329kts
07-Dec-19 07:36 52.484064 -1.517620 317 16500ft 329kts
07-Dec-19 07:37 52.551137 -1.619535 317 16144ft 315kts
07-Dec-19 07:38 52.611246 -1.711140 316 15133ft 282kts
07-Dec-19 07:39 52.667180 -1.796615 316 14127ft 269kts
07-Dec-19 07:40 52.721638 -1.880051 317 13121ft 264kts
07-Dec-19 07:41 52.775128 -1.962212 317 12122ft 262kts
07-Dec-19 07:42 52.826679 -2.041593 317 11107ft 242kts
07-Dec-19 07:43 52.876169 -2.117982 317 10104ft 243kts
07-Dec-19 07:44 52.925474 -2.194264 317 9105ft 243kts
07-Dec-19 07:45 52.974740 -2.270667 317 8104ft 242kts
07-Dec-19 07:46 53.023858 -2.347019 317 7103ft 241kts
07-Dec-19 07:47 53.072832 -2.423261 317 5799ft 233kts
07-Dec-19 07:48 53.123081 -2.484283 332 4294ft 220kts
07-Dec-19 07:49 53.175024 -2.514992 349 3995ft 178kts
07-Dec-19 07:50 53.218993 -2.496538 21 3879ft 153kts
07-Dec-19 07:51 53.256636 -2.462451 40 2718ft 133kts
07-Dec-19 07:52 53.277796 -2.424111 50 1827ft 104kts
07-Dec-19 07:53 53.295047 -2.387812 51 991ft 93kts
07-Dec-19 07:54 53.311014 -2.355005 50 817ft 93kts
07-Dec-19 07:55 53.327541 -2.320270 51 459ft 93kts
07-Dec-19 07:56 53.340803 -2.292368 48 255ft 47kts
07-Dec-19 07:57 53.346159 -2.284689 21 255ft 17kts
07-Dec-19 07:58 53.348808 -2.280510 50 255ft 11kts
07-Dec-19 07:59 53.351995 -2.282000 5 255ft 14kts
07-Dec-19 08:00 53.350933 -2.285907 231 255ft 7kts
07-Dec-19 08:01 53.348445 -2.290321 222 255ft 15kts
07-Dec-19 08:02 53.347061 -2.288757 51 255ft 23kts
07-Dec-19 08:03 53.364332 -2.255771 28 1183ft 116kts
07-Dec-19 08:04 53.375844 -2.302557 249 2605ft 209kts
07-Dec-19 08:05 53.364086 -2.414353 266 4641ft 273kts
07-Dec-19 08:06 53.363831 -2.546502 271 6890ft 291kts
07-Dec-19 08:07 53.367048 -2.682153 272 8961ft 292kts
07-Dec-19 08:08 53.370835 -2.815634 272 10943ft 286kts
07-Dec-19 08:09 53.374530 -2.946208 272 12919ft 281kts
07-Dec-19 08:10 53.378024 -3.074118 272 14896ft 274kts
07-Dec-19 08:11 53.381288 -3.197724 272 16870ft 263kts
07-Dec-19 08:12 53.384524 -3.323697 272 17843ft 287kts
07-Dec-19 08:13 53.387936 -3.463610 272 17694ft 323kts
07-Dec-19 08:14 53.391514 -3.618901 272 15997ft 336kts
07-Dec-19 08:15 53.394621 -3.761699 271 14155ft 287kts
07-Dec-19 08:16 53.397270 -3.890134 271 12196ft 268kts
07-Dec-19 08:17 53.399666 -4.012538 271 10248ft 260kts
07-Dec-19 08:18 53.401909 -4.133430 271 8302ft 267kts
07-Dec-19 08:19 53.404149 -4.261259 271 6364ft 280kts
07-Dec-19 08:20 53.406161 -4.383426 271 5997ft 242kts
07-Dec-19 08:21 53.407834 -4.491363 271 5998ft 226kts
07-Dec-19 08:22 53.409482 -4.604302 271 5999ft 247kts
07-Dec-19 08:23 53.411030 -4.717836 271 5999ft 245kts
07-Dec-19 08:24 53.412479 -4.832093 271 5999ft 245kts
07-Dec-19 08:25 53.413822 -4.946658 271 6000ft 245kts
07-Dec-19 08:26 53.415051 -5.060863 271 6000ft 245kts
07-Dec-19 08:27 53.416174 -5.175333 271 6000ft 245kts
07-Dec-19 08:28 53.417185 -5.289406 271 6000ft 245kts
07-Dec-19 08:29 53.412745 -5.403835 265 5999ft 244kts
07-Dec-19 08:30 53.406761 -5.514856 265 5999ft 237kts
07-Dec-19 08:31 53.400780 -5.624845 265 5999ft 236kts
07-Dec-19 08:32 53.394807 -5.733760 264 5999ft 236kts
07-Dec-19 08:33 53.388778 -5.842821 264 6000ft 235kts
07-Dec-19 08:34 53.397319 -5.954599 286 3883ft 251kts
07-Dec-19 08:35 53.408701 -6.057170 270 2558ft 197kts
07-Dec-19 08:36 53.412986 -6.129665 277 1785ft 121kts
07-Dec-19 08:37 53.415726 -6.178462 274 1071ft 94kts
07-Dec-19 08:38 53.418360 -6.221397 276 628ft 92kts
07-Dec-19 08:39 53.420959 -6.263642 275 245ft 73kts
07-Dec-19 08:40 53.422732 -6.270397 5 245ft 8kts
07-Dec-19 08:41 53.422777 -6.264827 95 245ft 11kts
07-Dec-19 08:42 53.423846 -6.259495 46 245ft 14kts
07-Dec-19 08:43 53.426899 -6.257897 294 245ft 9kts
07-Dec-19 08:44 53.427764 -6.259692 342 245ft 4kts
07-Dec-19 08:45 53.427868 -6.259451 177 245ft 0kts

Navigation Log

Ident Type
Flight plan parsing failed, navigation log unavailable